Time;durP1;ratioP1;P1;durP2;ratioP2;P2;SDS_P1;SDS_P2;PMS_P1;PMS_P2;Temp;Humidity;BMP_temperature;BMP_pressure;BME280_temperature;BME280_humidity;BME280_pressure;Samples;Min_cycle;Max_cycle;Signal;HPM_P1;HPM_P2
2022/01/12 00:02:03;;;;;;;9.20;8.30;;;8.00;89.20;;;;;;5051926;28;20419;-74
2022/01/12 00:04:29;;;;;;;10.10;8.33;;;7.90;88.70;;;;;;5054241;28;20423;-78
2022/01/12 00:06:55;;;;;;;11.33;8.93;;;7.90;88.80;;;;;;5037523;28;20539;-75
2022/01/12 00:09:21;;;;;;;11.83;9.43;;;7.90;89.40;;;;;;5055817;28;20698;-75
2022/01/12 00:11:47;;;;;;;10.70;8.63;;;7.90;89.20;;;;;;5054670;28;20414;-75
2022/01/12 00:14:12;;;;;;;9.73;8.83;;;7.90;88.90;;;;;;5020015;28;20629;-75
2022/01/12 00:16:40;;;;;;;9.45;8.50;;;8.00;88.90;;;;;;5054286;28;20408;-69
2022/01/12 00:19:06;;;;;;;11.57;8.23;;;7.90;89.10;;;;;;5042921;28;20213;-71
2022/01/12 00:21:31;;;;;;;10.30;9.00;;;7.90;89.00;;;;;;5034753;28;20451;-74
2022/01/12 00:23:57;;;;;;;11.40;8.57;;;7.80;88.90;;;;;;5035255;28;20174;-70
2022/01/12 00:26:40;;;;;;;13.10;8.87;;;7.80;89.00;;;;;;5037120;28;20177;-69
2022/01/12 00:34:35;;;;;;;10.40;8.10;;;7.20;89.20;;;;;;5053504;28;20519;-69
2022/01/12 00:37:01;;;;;;;9.80;7.77;;;7.40;89.50;;;;;;5047225;28;20518;-69
2022/01/12 00:39:26;;;;;;;8.73;7.80;;;7.30;89.90;;;;;;5055165;28;20264;-69
2022/01/12 00:41:52;;;;;;;9.23;7.57;;;7.10;90.00;;;;;;5053952;28;20180;-69
2022/01/12 00:44:23;;;;;;;8.60;7.70;;;6.60;90.00;;;;;;5055150;28;20307;-69
2022/01/12 00:46:53;;;;;;;8.60;7.80;;;6.90;90.50;;;;;;5054896;28;20458;-69
2022/01/12 00:49:19;;;;;;;8.33;7.47;;;6.80;91.10;;;;;;5052932;28;20427;-69
2022/01/12 00:51:47;;;;;;;8.57;7.43;;;6.70;91.40;;;;;;5054274;28;20417;-69
2022/01/12 00:54:13;;;;;;;8.77;6.97;;;6.70;91.70;;;;;;5055541;28;20384;-69
2022/01/12 00:56:39;;;;;;;9.43;8.00;;;6.60;91.80;;;;;;5054863;28;20414;-69
2022/01/12 00:59:05;;;;;;;8.87;7.90;;;6.50;91.90;;;;;;5055471;28;20413;-69
2022/01/12 01:01:32;;;;;;;8.87;8.07;;;6.40;92.20;;;;;;5037084;28;20699;-74
2022/01/12 01:03:58;;;;;;;8.73;7.93;;;6.50;92.50;;;;;;5037057;28;20201;-69
2022/01/12 01:06:24;;;;;;;8.50;7.60;;;6.40;92.80;;;;;;5055154;28;20423;-69
2022/01/12 01:08:51;;;;;;;11.73;8.20;;;6.20;92.90;;;;;;5054344;28;20183;-69
2022/01/12 01:11:21;;;;;;;9.30;8.37;;;6.20;93.20;;;;;;5037276;28;20178;-69
2022/01/12 01:14:15;;;;;;;9.65;7.85;;;6.20;93.60;;;;;;5054292;28;20804;-69
2022/01/12 01:27:18;;;;;;;9.87;8.97;;;6.10;94.80;;;;;;5054969;28;20785;-69
2022/01/12 01:29:44;;;;;;;10.80;9.70;;;6.10;94.90;;;;;;5053991;28;20429;-69
2022/01/12 01:32:11;;;;;;;11.37;9.93;;;6.10;95.10;;;;;;5054184;28;20171;-69
2022/01/12 01:34:43;;;;;;;11.30;10.10;;;6.10;95.40;;;;;;5053248;28;20543;-69
2022/01/12 01:37:10;;;;;;;11.00;9.53;;;6.00;95.50;;;;;;5036240;28;20417;-69
2022/01/12 01:39:35;;;;;;;10.10;9.10;;;6.20;95.90;;;;;;5035571;28;20421;-72
2022/01/12 01:42:08;;;;;;;12.63;10.57;;;6.10;96.10;;;;;;5054071;28;20422;-69
2022/01/12 01:55:20;;;;;;;8.27;7.47;;;6.20;95.80;;;;;;5053739;28;20360;-69
2022/01/12 01:57:46;;;;;;;12.97;8.00;;;6.20;95.70;;;;;;5052865;28;20454;-69
2022/01/12 02:00:17;;;;;;;9.83;7.77;;;6.30;96.10;;;;;;5035484;28;20175;-69
2022/01/12 02:02:45;;;;;;;9.43;7.97;;;6.40;96.30;;;;;;5034948;28;20465;-69
2022/01/12 02:05:11;;;;;;;9.53;7.90;;;6.40;96.20;;;;;;5035614;28;20445;-69
2022/01/12 02:07:37;;;;;;;7.80;7.10;;;6.30;96.30;;;;;;5052737;28;20437;-73
2022/01/12 02:10:04;;;;;;;9.90;8.17;;;6.40;96.50;;;;;;5052848;28;20400;-69
2022/01/12 02:12:29;;;;;;;8.90;8.07;;;6.40;96.70;;;;;;5053010;28;20190;-69
2022/01/12 02:14:57;;;;;;;7.70;7.00;;;6.40;96.80;;;;;;5034685;28;20419;-69
2022/01/12 02:17:29;;;;;;;8.17;7.33;;;6.40;96.80;;;;;;5052689;28;20580;-69
2022/01/12 02:36:30;;;;;;;7.10;6.40;;;6.60;96.40;;;;;;5052980;28;20428;-69
2022/01/12 02:41:42;;;;;;;7.27;6.57;;;6.60;95.40;;;;;;5052062;28;20571;-70
2022/01/12 02:54:48;;;;;;;7.87;5.73;;;6.70;94.40;;;;;;5051757;28;20420;-69
2022/01/12 02:57:14;;;;;;;7.40;6.67;;;6.70;94.30;;;;;;5034439;28;20431;-69
2022/01/12 02:59:59;;;;;;;7.43;6.83;;;6.80;94.10;;;;;;5051795;28;20417;-73
2022/01/12 03:02:37;;;;;;;7.80;6.97;;;6.90;93.90;;;;;;5034561;28;20390;-69
2022/01/12 03:05:30;;;;;;;7.63;6.93;;;6.90;93.90;;;;;;5035807;28;20390;-69
2022/01/12 03:08:02;;;;;;;8.43;7.50;;;6.90;94.20;;;;;;5033732;28;21033;-69
2022/01/12 03:10:27;;;;;;;6.80;6.20;;;6.90;94.00;;;;;;5032569;28;20477;-69
2022/01/12 03:12:54;;;;;;;7.47;6.87;;;6.90;94.20;;;;;;5031643;28;20398;-69
2022/01/12 03:15:19;;;;;;;7.87;7.07;;;6.90;94.10;;;;;;5014798;28;20617;-69
2022/01/12 03:17:45;;;;;;;7.90;6.70;;;6.60;93.70;;;;;;5031586;28;20410;-69
2022/01/12 03:20:11;;;;;;;6.50;6.00;;;6.90;94.00;;;;;;5033081;28;20188;-69
2022/01/12 03:22:37;;;;;;;6.77;6.30;;;6.90;94.30;;;;;;5052187;28;20234;-69
2022/01/12 03:25:04;;;;;;;8.13;7.33;;;6.90;94.80;;;;;;5051566;28;20388;-69
2022/01/12 03:27:30;;;;;;;6.70;6.10;;;6.90;95.00;;;;;;5052278;28;20458;-69
2022/01/12 03:29:57;;;;;;;8.30;6.83;;;6.90;94.90;;;;;;5033513;28;20429;-69
2022/01/12 03:32:35;;;;;;;9.97;6.53;;;6.90;95.30;;;;;;5051844;28;20183;-69
2022/01/12 03:35:23;;;;;;;7.73;7.10;;;6.90;95.40;;;;;;5051303;28;20413;-69
2022/01/12 03:38:19;;;;;;;7.47;6.77;;;6.80;94.90;;;;;;5051257;28;20904;-69
2022/01/12 03:40:40;;;;;;;7.50;6.63;;;6.80;95.20;;;;;;5055529;28;21017;-74
2022/01/12 03:43:07;;;;;;;7.70;7.00;;;6.80;95.40;;;;;;5055327;28;20474;-69
2022/01/12 03:45:33;;;;;;;7.07;6.40;;;6.80;95.70;;;;;;5056169;28;20786;-69
2022/01/12 03:47:58;;;;;;;7.13;6.43;;;6.80;96.20;;;;;;5055331;28;20438;-69
2022/01/12 03:50:24;;;;;;;8.03;6.87;;;6.80;96.40;;;;;;5038099;28;20263;-69
2022/01/12 03:52:50;;;;;;;7.00;6.30;;;6.80;96.10;;;;;;5054951;28;20186;-69
2022/01/12 03:55:15;;;;;;;7.30;6.57;;;6.80;95.80;;;;;;5038096;28;20179;-69
2022/01/12 03:57:41;;;;;;;10.20;7.17;;;6.80;96.00;;;;;;5055063;28;20234;-74
2022/01/12 04:00:07;;;;;;;7.07;6.37;;;6.80;96.20;;;;;;5055801;28;20174;-69
2022/01/12 04:02:34;;;;;;;8.60;7.00;;;6.80;96.40;;;;;;5055849;28;20185;-69
2022/01/12 04:10:19;;;;;;;7.90;7.17;;;6.90;97.20;;;;;;5044338;28;20416;-69
2022/01/12 04:12:45;;;;;;;8.13;7.33;;;6.90;97.10;;;;;;5001053;28;20418;-78
2022/01/12 04:15:11;;;;;;;7.27;6.57;;;6.90;96.70;;;;;;5001700;28;20428;-69
2022/01/12 04:17:36;;;;;;;10.60;7.47;;;6.90;96.30;;;;;;5047538;28;20439;-69
2022/01/12 04:20:03;;;;;;;7.80;6.90;;;7.00;95.70;;;;;;5020701;28;20178;-70
2022/01/12 04:25:14;;;;;;;8.60;7.80;;;7.10;94.70;;;;;;5055740;28;20484;-68
2022/01/12 04:27:40;;;;;;;9.37;8.47;;;7.20;94.70;;;;;;5055712;28;20458;-68
2022/01/12 04:30:06;;;;;;;7.73;6.93;;;7.10;95.60;;;;;;5037261;28;20421;-68
2022/01/12 04:32:37;;;;;;;8.03;7.23;;;7.10;96.10;;;;;;5055832;28;20423;-68
2022/01/12 04:35:04;;;;;;;7.77;7.10;;;7.10;96.40;;;;;;5037967;28;20504;-68
2022/01/12 04:37:29;;;;;;;8.90;7.70;;;7.00;96.60;;;;;;5055391;28;20919;-70
2022/01/12 04:39:55;;;;;;;8.97;8.17;;;7.00;96.60;;;;;;5055321;28;20459;-69
2022/01/12 04:42:21;;;;;;;8.70;7.90;;;7.00;96.60;;;;;;5055507;28;20199;-69
2022/01/12 04:44:48;;;;;;;8.83;7.60;;;7.10;96.70;;;;;;5054904;28;20224;-77
2022/01/12 04:47:39;;;;;;;7.80;6.90;;;7.00;96.80;;;;;;5055452;28;20215;-69
2022/01/12 04:49:59;;;;;;;7.53;6.83;;;7.00;96.50;;;;;;5053617;28;20830;-69
2022/01/12 04:52:25;;;;;;;8.43;7.73;;;6.90;95.70;;;;;;5054923;28;20461;-69
2022/01/12 04:54:51;;;;;;;8.57;7.70;;;7.10;95.60;;;;;;5036800;28;20289;-69
2022/01/12 04:57:17;;;;;;;7.87;7.00;;;7.10;95.90;;;;;;5055353;28;20184;-69
2022/01/12 04:59:59;;;;;;;8.33;7.57;;;7.00;95.80;;;;;;5054872;28;20404;-70
2022/01/12 05:08:37;;;;;;;9.47;8.57;;;6.90;97.10;;;;;;5053861;28;20454;-69
2022/01/12 05:13:32;;;;;;;6.80;6.20;;;6.90;97.40;;;;;;5054285;28;20439;-69
2022/01/12 05:16:00;;;;;;;7.60;6.50;;;6.50;97.20;;;;;;5036303;28;20471;-69
2022/01/12 05:18:27;;;;;;;8.47;7.77;;;7.00;97.10;;;;;;5037017;28;20418;-69
2022/01/12 05:20:53;;;;;;;9.67;7.80;;;7.10;97.00;;;;;;5053631;28;20426;-69
2022/01/12 05:23:19;;;;;;;11.30;7.60;;;7.10;96.70;;;;;;5054533;28;20430;-69
2022/01/12 05:25:47;;;;;;;10.10;8.10;;;7.10;96.20;;;;;;5054542;28;20558;-69
2022/01/12 05:28:14;;;;;;;8.00;7.20;;;7.20;96.00;;;;;;5054363;28;20467;-69
2022/01/12 05:30:40;;;;;;;8.03;7.23;;;7.10;95.50;;;;;;5054111;28;20414;-69
2022/01/12 05:33:06;;;;;;;7.70;7.00;;;7.20;95.30;;;;;;5053552;28;20561;-69
2022/01/12 05:35:33;;;;;;;7.37;6.67;;;7.20;95.40;;;;;;5054018;28;20884;-69
2022/01/12 05:38:00;;;;;;;12.97;8.60;;;7.20;95.50;;;;;;5053227;28;20405;-69
2022/01/12 05:40:26;;;;;;;8.60;7.30;;;7.20;96.20;;;;;;5054463;28;20414;-69
2022/01/12 05:42:54;;;;;;;8.60;7.70;;;7.20;96.30;;;;;;5053639;28;20482;-70
2022/01/12 05:45:21;;;;;;;8.70;7.23;;;7.20;96.50;;;;;;5053868;28;20415;-69
2022/01/12 05:50:13;;;;;;;8.80;6.87;;;6.80;96.00;;;;;;5053224;28;20431;-74
2022/01/12 05:52:40;;;;;;;6.90;6.17;;;7.10;95.90;;;;;;5054043;28;20450;-69
2022/01/12 05:55:07;;;;;;;6.97;6.27;;;7.20;96.10;;;;;;5053081;28;20434;-69
2022/01/12 05:57:34;;;;;;;9.07;8.17;;;7.30;95.90;;;;;;5036204;28;20987;-69
2022/01/12 06:00:03;;;;;;;7.87;6.90;;;7.30;95.70;;;;;;5052820;28;20424;-69
2022/01/12 06:02:29;;;;;;;9.27;8.37;;;7.40;94.90;;;;;;5053271;28;20411;-69
2022/01/12 06:04:55;;;;;;;9.30;7.53;;;7.50;94.30;;;;;;5052827;28;20911;-69
2022/01/12 06:07:21;;;;;;;11.23;9.33;;;7.40;93.90;;;;;;5053362;28;20753;-69
2022/01/12 06:09:47;;;;;;;11.07;9.30;;;7.40;93.70;;;;;;5018753;28;20181;-69
2022/01/12 06:12:13;;;;;;;10.73;8.70;;;7.50;93.90;;;;;;5034692;28;20188;-69
2022/01/12 06:14:41;;;;;;;9.50;7.87;;;7.50;94.20;;;;;;5033129;28;20268;-69
2022/01/12 06:17:08;;;;;;;8.50;7.70;;;7.50;94.30;;;;;;5035093;28;20481;-73
2022/01/12 06:19:34;;;;;;;8.17;7.40;;;7.50;94.30;;;;;;5046860;28;20432;-73
2022/01/12 06:22:00;;;;;;;9.53;8.10;;;7.60;94.40;;;;;;5047127;28;20428;-72
2022/01/12 06:24:25;;;;;;;10.30;9.40;;;7.50;93.90;;;;;;5035889;28;20178;-72
2022/01/12 06:26:52;;;;;;;7.80;7.10;;;7.60;93.70;;;;;;5015083;28;20737;-70
2022/01/12 06:31:51;;;;;;;7.27;6.57;;;7.60;92.90;;;;;;5053522;28;20415;-69
2022/01/12 06:34:18;;;;;;;8.30;7.50;;;7.60;92.90;;;;;;5053491;28;20178;-69
2022/01/12 06:36:44;;;;;;;8.87;8.00;;;7.60;93.10;;;;;;5053132;28;20408;-69
2022/01/12 06:39:13;;;;;;;8.33;7.53;;;7.60;92.80;;;;;;5034878;28;20493;-72
2022/01/12 06:41:42;;;;;;;7.73;6.93;;;7.60;92.70;;;;;;5052716;28;20481;-72
2022/01/12 06:44:08;;;;;;;8.73;7.90;;;7.60;92.70;;;;;;5051587;28;20568;-72
2022/01/12 06:46:35;;;;;;;9.27;8.47;;;7.60;93.00;;;;;;5052399;28;21089;-72
2022/01/12 06:49:02;;;;;;;8.80;8.07;;;7.70;93.60;;;;;;5050807;28;20439;-73
2022/01/12 06:51:29;;;;;;;8.27;7.00;;;7.40;94.10;;;;;;5052428;28;20971;-72
2022/01/12 06:53:55;;;;;;;8.30;7.50;;;7.70;94.60;;;;;;5052424;28;20557;-73
2022/01/12 06:56:21;;;;;;;8.07;7.30;;;7.70;95.30;;;;;;5052958;28;20514;-72
2022/01/12 06:58:47;;;;;;;8.10;7.30;;;7.70;95.50;;;;;;5052921;28;20250;-70
2022/01/12 07:01:14;;;;;;;8.20;7.03;;;7.70;95.80;;;;;;5034029;28;20425;-73
2022/01/12 07:03:40;;;;;;;11.73;8.70;;;8.00;99.90;;;;;;5053124;28;20411;-73
2022/01/12 07:06:05;;;;;;;7.60;6.90;;;8.90;99.90;;;;;;5048847;28;20497;-74
2022/01/12 07:08:34;;;;;;;9.30;8.53;;;9.60;99.90;;;;;;5052801;28;20554;-74
2022/01/12 07:11:00;;;;;;;8.23;7.40;;;10.30;99.90;;;;;;5034348;28;20181;-74
2022/01/12 07:13:26;;;;;;;7.60;6.90;;;10.90;99.90;;;;;;5051770;28;20435;-72
2022/01/12 07:15:52;;;;;;;9.80;8.30;;;11.30;99.70;;;;;;5046479;28;20426;-73
2022/01/12 07:18:21;;;;;;;10.03;7.77;;;12.10;99.90;;;;;;5050599;28;20417;-73
2022/01/12 07:20:46;;;;;;;9.50;8.50;;;12.80;99.90;;;;;;5052541;28;20193;-73
2022/01/12 07:23:12;;;;;;;8.90;7.43;;;13.50;98.00;;;;;;5052015;28;20424;-73
2022/01/12 07:25:38;;;;;;;7.37;6.57;;;14.10;96.70;;;;;;5052020;28;20195;-72
2022/01/12 07:28:04;;;;;;;8.37;7.57;;;14.60;94.90;;;;;;5051327;28;20664;-72
2022/01/12 07:30:29;;;;;;;11.00;9.10;;;14.90;93.70;;;;;;5048307;28;20185;-69
2022/01/12 07:32:55;;;;;;;9.60;8.60;;;15.20;90.90;;;;;;5046174;28;20844;-82
2022/01/12 07:35:24;;;;;;;8.83;8.07;;;15.00;78.40;;;;;;5052053;28;20268;-70
2022/01/12 07:37:49;;;;;;;8.40;7.70;;;14.40;72.10;;;;;;5017679;28;20516;-70
2022/01/12 07:40:15;;;;;;;9.33;8.43;;;13.80;71.10;;;;;;5035622;28;20172;-70
2022/01/12 07:42:42;;;;;;;9.50;8.60;;;13.20;70.80;;;;;;5051770;28;20191;-70
2022/01/12 07:45:08;;;;;;;8.83;8.23;;;12.60;72.40;;;;;;5031129;28;20432;-70
2022/01/12 07:47:34;;;;;;;9.50;8.50;;;12.10;74.20;;;;;;5038676;28;20463;-69
2022/01/12 07:50:00;;;;;;;11.00;8.40;;;11.60;76.60;;;;;;5038129;28;20421;-70
2022/01/12 07:52:28;;;;;;;9.77;8.87;;;11.10;79.10;;;;;;5034880;28;20186;-71
2022/01/12 07:54:53;;;;;;;11.97;10.87;;;10.70;80.50;;;;;;5042626;28;20409;-81
2022/01/12 07:57:20;;;;;;;10.73;9.10;;;10.30;81.30;;;;;;5051449;28;20428;-70
2022/01/12 07:59:46;;;;;;;10.10;8.27;;;10.00;81.00;;;;;;5043486;28;20181;-71
2022/01/12 08:02:12;;;;;;;12.10;11.03;;;9.70;83.20;;;;;;5033841;28;20424;-69
2022/01/12 08:04:39;;;;;;;11.90;10.80;;;9.50;83.70;;;;;;5024507;28;20168;-69
2022/01/12 08:07:06;;;;;;;10.97;8.90;;;9.30;84.50;;;;;;5046550;28;20198;-69
2022/01/12 08:09:32;;;;;;;11.43;10.33;;;9.10;85.20;;;;;;5035759;28;20962;-69
2022/01/12 08:11:58;;;;;;;11.60;10.50;;;9.00;87.90;;;;;;5031630;28;20393;-69
2022/01/12 08:14:24;;;;;;;9.83;8.80;;;8.80;89.10;;;;;;5051226;28;20419;-68
2022/01/12 08:16:49;;;;;;;10.23;9.20;;;8.60;90.70;;;;;;5034545;28;20416;-69
2022/01/12 08:19:18;;;;;;;13.33;12.10;;;8.50;91.10;;;;;;5033655;28;20602;-68
2022/01/12 08:21:44;;;;;;;13.23;11.83;;;8.40;91.40;;;;;;5052217;28;20177;-68
2022/01/12 08:24:11;;;;;;;10.27;9.13;;;8.30;91.80;;;;;;5051976;28;20408;-68
2022/01/12 08:26:37;;;;;;;12.90;9.43;;;8.20;91.50;;;;;;5037933;28;20575;-68
2022/01/12 08:29:03;;;;;;;9.83;8.83;;;8.10;91.60;;;;;;5055283;28;20447;-68
2022/01/12 08:31:29;;;;;;;13.47;11.93;;;8.10;91.70;;;;;;5055543;28;20408;-68
2022/01/12 08:33:55;;;;;;;10.20;9.20;;;8.10;91.90;;;;;;5054667;28;20828;-79
2022/01/12 08:36:21;;;;;;;10.47;9.40;;;8.00;92.10;;;;;;5054407;28;20419;-68
2022/01/12 08:38:50;;;;;;;12.73;10.07;;;8.10;92.10;;;;;;5055066;28;20199;-68
2022/01/12 08:41:15;;;;;;;15.30;10.43;;;8.00;91.80;;;;;;5054209;28;20420;-69
2022/01/12 08:43:43;;;;;;;11.77;10.30;;;8.00;91.60;;;;;;5054165;28;20469;-68
2022/01/12 08:46:11;;;;;;;16.47;13.30;;;7.60;91.40;;;;;;5074684;28;20245;-68
2022/01/12 08:48:37;;;;;;;12.27;9.40;;;8.00;91.80;;;;;;5073943;28;20458;-69
2022/01/12 08:51:02;;;;;;;13.50;10.20;;;8.00;91.70;;;;;;5074724;28;20444;-68
2022/01/12 08:53:28;;;;;;;10.70;9.27;;;8.00;91.70;;;;;;5075035;28;20230;-69
2022/01/12 08:55:55;;;;;;;11.27;9.37;;;8.00;92.00;;;;;;5073679;28;20288;-68
2022/01/12 08:58:20;;;;;;;15.30;11.10;;;8.10;91.90;;;;;;5074751;28;20399;-69
2022/01/12 09:00:46;;;;;;;11.40;10.20;;;8.00;92.00;;;;;;5074229;28;20417;-69
2022/01/12 09:03:13;;;;;;;11.73;10.30;;;8.00;92.50;;;;;;5073140;28;20640;-69
2022/01/12 09:05:39;;;;;;;13.17;11.30;;;8.00;92.30;;;;;;5073913;28;20830;-69
2022/01/12 09:08:05;;;;;;;10.57;9.57;;;8.00;92.10;;;;;;5074283;28;20493;-69
2022/01/12 09:10:34;;;;;;;12.90;11.70;;;8.00;91.90;;;;;;5075041;28;20419;-69
2022/01/12 09:13:00;;;;;;;12.80;8.50;;;8.10;91.80;;;;;;5060624;28;20439;-70
2022/01/12 09:15:27;;;;;;;10.50;8.80;;;8.00;92.10;;;;;;5053561;28;20486;-69
2022/01/12 09:17:55;;;;;;;14.07;12.47;;;8.00;92.20;;;;;;5054879;28;20411;-69
2022/01/12 09:20:21;;;;;;;12.27;10.43;;;8.00;92.30;;;;;;5036311;28;20413;-69
2022/01/12 09:22:49;;;;;;;11.57;9.23;;;8.00;92.40;;;;;;5067560;28;20465;-69
2022/01/12 09:25:14;;;;;;;13.77;9.70;;;8.00;92.40;;;;;;5073262;28;20423;-69
2022/01/12 09:27:41;;;;;;;16.00;10.50;;;8.00;92.40;;;;;;5072613;28;20511;-69
2022/01/12 09:30:10;;;;;;;12.60;11.40;;;7.90;92.70;;;;;;5073534;28;20188;-69
2022/01/12 09:32:36;;;;;;;13.03;9.47;;;7.90;92.70;;;;;;5072697;28;20430;-70
2022/01/12 09:35:03;;;;;;;12.00;9.57;;;7.90;93.00;;;;;;5069714;28;20787;-69
2022/01/12 09:37:29;;;;;;;12.10;9.63;;;7.90;93.30;;;;;;5069834;28;20933;-69
2022/01/12 09:39:54;;;;;;;12.65;11.45;;;7.90;93.40;;;;;;5073686;28;20417;-69
2022/01/12 09:42:20;;;;;;;12.60;10.90;;;8.00;93.40;;;;;;5070371;28;20204;-69
2022/01/12 09:44:47;;;;;;;26.53;10.77;;;7.90;93.60;;;;;;5053546;28;20454;-69
2022/01/12 09:47:15;;;;;;;12.63;10.67;;;7.90;93.80;;;;;;5038405;28;20425;-69
2022/01/12 09:49:43;;;;;;;12.80;10.80;;;8.10;94.10;;;;;;5018259;28;20451;-77
2022/01/12 09:52:08;;;;;;;15.13;10.60;;;8.10;93.90;;;;;;5049699;28;20438;-69
2022/01/12 09:54:34;;;;;;;11.17;9.50;;;8.00;93.70;;;;;;5044519;28;20511;-69
2022/01/12 09:57:00;;;;;;;14.83;10.47;;;8.00;93.90;;;;;;5035062;28;20180;-75
2022/01/12 09:59:26;;;;;;;15.20;9.40;;;8.10;94.10;;;;;;5050151;28;20202;-69
2022/01/12 10:01:54;;;;;;;17.33;11.67;;;8.00;94.60;;;;;;5050030;28;20180;-69
2022/01/12 10:04:20;;;;;;;12.10;9.13;;;8.10;94.60;;;;;;5042568;28;20629;-69
2022/01/12 10:06:58;;;;;;;15.27;11.80;;;8.00;94.70;;;;;;5034142;28;20413;-69
2022/01/12 10:09:31;;;;;;;13.93;11.23;;;8.00;94.70;;;;;;5053261;28;20462;-69
2022/01/12 10:12:04;;;;;;;12.33;8.70;;;8.00;94.50;;;;;;5046036;28;20414;-69
2022/01/12 10:14:52;;;;;;;16.10;12.17;;;8.00;94.70;;;;;;5016373;28;20424;-69
2022/01/12 10:17:29;;;;;;;16.73;11.87;;;8.00;95.00;;;;;;5031232;28;20432;-69
2022/01/12 10:20:09;;;;;;;13.90;9.90;;;8.00;95.20;;;;;;5031957;28;20400;-69
2022/01/12 10:22:36;;;;;;;14.17;10.10;;;8.00;95.20;;;;;;5053261;28;20401;-70
2022/01/12 10:25:19;;;;;;;13.33;10.47;;;8.00;95.50;;;;;;5052591;28;20462;-81
2022/01/12 10:27:46;;;;;;;14.47;10.30;;;8.00;95.50;;;;;;5041070;28;20456;-69
2022/01/12 10:30:25;;;;;;;13.13;9.00;;;8.00;95.70;;;;;;5033892;28;20425;-69
2022/01/12 10:33:04;;;;;;;12.23;10.93;;;8.00;95.30;;;;;;5041866;28;20455;-69
2022/01/12 10:35:36;;;;;;;14.90;10.80;;;8.10;95.60;;;;;;5047445;28;20442;-69
2022/01/12 10:38:16;;;;;;;14.30;9.97;;;8.10;95.60;;;;;;5052383;28;20416;-80
2022/01/12 10:40:49;;;;;;;14.90;10.60;;;8.10;95.80;;;;;;5032713;28;20423;-69
2022/01/12 10:43:24;;;;;;;12.53;10.13;;;8.10;95.80;;;;;;5051724;28;20498;-69
2022/01/12 10:45:50;;;;;;;18.57;12.10;;;8.10;95.50;;;;;;5042264;28;20423;-69
2022/01/12 10:48:16;;;;;;;14.73;11.33;;;8.10;95.30;;;;;;5026934;28;21041;-69
2022/01/12 10:50:56;;;;;;;14.67;10.67;;;8.10;95.80;;;;;;5032716;28;20412;-69
2022/01/12 10:53:31;;;;;;;20.83;11.47;;;8.20;96.60;;;;;;5046368;28;20531;-69
2022/01/12 10:56:18;;;;;;;17.23;14.13;;;8.20;96.20;;;;;;5032792;28;20439;-69
2022/01/12 10:58:46;;;;;;;12.87;10.37;;;8.20;95.80;;;;;;5032564;28;20418;-69
2022/01/12 11:01:13;;;;;;;18.45;11.50;;;8.20;95.80;;;;;;5018379;28;20423;-69
2022/01/12 11:03:39;;;;;;;16.80;12.33;;;8.20;96.40;;;;;;5051395;28;20268;-69
2022/01/12 11:06:08;;;;;;;19.30;12.17;;;8.20;96.30;;;;;;5042815;28;20503;-70
2022/01/12 11:08:36;;;;;;;15.67;12.00;;;8.20;96.40;;;;;;5032618;28;20832;-71
2022/01/12 11:11:02;;;;;;;16.97;13.13;;;8.20;97.60;;;;;;5050985;28;20842;-76
2022/01/12 11:13:30;;;;;;;17.47;12.57;;;8.20;97.80;;;;;;5041039;28;20809;-71
2022/01/12 11:15:56;;;;;;;18.87;12.70;;;8.10;98.00;;;;;;5031166;28;20768;-69
2022/01/12 11:18:26;;;;;;;17.90;15.23;;;8.20;98.00;;;;;;5014511;28;20447;-72
2022/01/12 11:21:01;;;;;;;19.10;13.90;;;8.20;97.80;;;;;;5033070;28;20413;-75
2022/01/12 11:23:41;;;;;;;18.13;12.50;;;8.20;98.10;;;;;;5040596;28;20658;-70
2022/01/12 11:26:16;;;;;;;17.07;11.17;;;8.20;98.00;;;;;;5030798;28;20424;-74
2022/01/12 11:28:43;;;;;;;21.67;14.90;;;8.20;97.90;;;;;;5038121;28;20471;-76
2022/01/12 11:31:09;;;;;;;18.73;11.87;;;8.20;98.00;;;;;;5040957;28;20742;-70
2022/01/12 11:33:42;;;;;;;17.43;12.33;;;8.20;97.80;;;;;;5032555;28;20434;-71
2022/01/12 11:36:16;;;;;;;18.87;12.50;;;8.20;97.70;;;;;;5049859;28;20628;-80
2022/01/12 11:38:47;;;;;;;21.13;14.23;;;8.20;98.10;;;;;;5049277;28;20422;-70
2022/01/12 11:41:30;;;;;;;20.90;15.00;;;7.90;98.40;;;;;;5040192;28;20899;-71
2022/01/12 11:44:07;;;;;;;20.60;13.43;;;8.20;98.30;;;;;;5050384;28;20554;-70
2022/01/12 11:47:02;;;;;;;19.23;13.30;;;8.20;98.20;;;;;;5049789;28;20512;-70
2022/01/12 11:49:36;;;;;;;18.67;12.80;;;8.30;98.00;;;;;;5044201;28;20451;-69
2022/01/12 11:52:22;;;;;;;21.10;14.10;;;8.20;98.20;;;;;;5041650;28;20419;-69
2022/01/12 11:54:51;;;;;;;20.83;13.43;;;8.20;98.00;;;;;;5027726;28;20765;-72
2022/01/12 11:57:21;;;;;;;17.00;13.73;;;8.20;98.50;;;;;;5027856;28;20516;-70
2022/01/12 11:59:56;;;;;;;22.13;15.47;;;8.20;98.60;;;;;;5034222;28;20466;-70
2022/01/12 12:02:33;;;;;;;19.17;14.00;;;8.20;98.70;;;;;;5041055;28;20758;-69
2022/01/12 12:05:06;;;;;;;19.10;11.90;;;8.20;98.30;;;;;;5053992;28;20558;-69
2022/01/12 12:08:02;;;;;;;18.10;13.80;;;8.30;98.20;;;;;;5055071;28;21034;-69
2022/01/12 12:10:34;;;;;;;20.10;14.50;;;8.30;97.70;;;;;;5033615;28;20482;-69
2022/01/12 12:13:00;;;;;;;19.90;13.27;;;8.30;98.00;;;;;;5048106;28;20426;-69
2022/01/12 12:15:27;;;;;;;21.90;14.97;;;8.30;97.80;;;;;;5034585;28;21338;-69
2022/01/12 12:17:55;;;;;;;26.10;16.10;;;8.30;98.10;;;;;;5017853;28;20966;-69
2022/01/12 12:20:23;;;;;;;19.90;14.50;;;8.30;98.70;;;;;;5049253;28;20435;-69
2022/01/12 12:22:50;;;;;;;23.73;15.33;;;8.30;99.10;;;;;;5055169;28;20426;-69
2022/01/12 12:25:21;;;;;;;26.03;16.57;;;8.30;99.80;;;;;;5049077;28;20428;-70
2022/01/12 12:27:52;;;;;;;25.27;17.27;;;8.30;99.60;;;;;;5055058;28;20455;-70
2022/01/12 12:30:20;;;;;;;25.60;16.70;;;8.30;99.80;;;;;;5054817;28;20917;-69
2022/01/12 12:32:57;;;;;;;23.47;16.77;;;8.30;99.70;;;;;;5051902;28;20449;-70
2022/01/12 12:35:27;;;;;;;25.60;16.20;;;8.30;99.90;;;;;;5044110;28;20420;-75
2022/01/12 12:37:55;;;;;;;23.43;15.73;;;8.30;99.90;;;;;;5036763;28;20417;-70
2022/01/12 12:40:25;;;;;;;25.27;18.20;;;8.20;99.90;;;;;;5000647;28;21004;-69
2022/01/12 12:43:12;;;;;;;26.93;17.30;;;8.30;99.90;;;;;;5035166;28;20460;-70
2022/01/12 12:45:45;;;;;;;26.80;18.07;;;8.20;99.90;;;;;;5017296;28;20512;-69
2022/01/12 12:48:14;;;;;;;30.10;17.60;;;8.10;99.90;;;;;;5036593;28;20547;-70
2022/01/12 12:50:41;;;;;;;25.83;17.33;;;8.00;99.90;;;;;;5037251;28;20428;-69
2022/01/12 12:53:07;;;;;;;27.53;18.03;;;7.90;99.90;;;;;;5054605;28;20499;-70
2022/01/12 12:55:35;;;;;;;25.10;16.73;;;7.90;99.90;;;;;;5054190;28;20538;-69
2022/01/12 12:58:01;;;;;;;27.23;17.97;;;7.90;99.90;;;;;;5054770;28;20437;-70
2022/01/12 13:00:28;;;;;;;24.13;16.53;;;8.00;99.90;;;;;;5052599;28;20855;-69
2022/01/12 13:02:56;;;;;;;28.77;18.60;;;8.00;99.90;;;;;;5053524;28;20415;-68
2022/01/12 13:05:24;;;;;;;26.00;16.50;;;8.00;99.90;;;;;;5052901;28;20473;-68
2022/01/12 13:07:51;;;;;;;23.93;16.17;;;7.90;99.90;;;;;;5054972;28;20436;-70
2022/01/12 13:10:20;;;;;;;23.67;17.20;;;8.50;99.90;;;;;;5052870;28;20428;-69
2022/01/12 13:12:50;;;;;;;30.50;19.07;;;8.90;99.90;;;;;;5054792;28;20423;-69
2022/01/12 13:15:32;;;;;;;20.80;13.63;;;9.30;99.90;;;;;;5052173;28;20822;-69
2022/01/12 13:18:01;;;;;;;24.90;15.90;;;10.00;99.90;;;;;;5035770;28;20881;-69
2022/01/12 13:23:03;;;;;;;28.43;17.97;;;11.00;99.90;;;;;;5054356;28;20407;-69
2022/01/12 13:25:30;;;;;;;29.67;21.10;;;11.00;96.60;;;;;;5045095;28;21219;-69
2022/01/12 13:27:56;;;;;;;25.93;17.83;;;10.90;94.50;;;;;;5053761;28;20780;-69
2022/01/12 13:30:32;;;;;;;27.03;20.10;;;10.70;94.20;;;;;;5053910;28;20466;-69
2022/01/12 13:33:00;;;;;;;29.23;18.50;;;10.50;94.40;;;;;;5054574;28;20407;-69
2022/01/12 13:35:33;;;;;;;29.40;18.67;;;10.30;94.70;;;;;;5033460;28;20441;-70
2022/01/12 13:38:00;;;;;;;32.80;20.33;;;10.10;95.00;;;;;;5043080;28;20430;-70
2022/01/12 13:40:38;;;;;;;28.13;19.00;;;10.00;95.40;;;;;;5051835;28;20424;-69
2022/01/12 13:43:05;;;;;;;27.83;18.97;;;9.80;96.30;;;;;;5040088;28;20547;-69
2022/01/12 13:45:40;;;;;;;26.93;18.60;;;9.60;96.90;;;;;;5052958;28;21274;-69
2022/01/12 13:48:18;;;;;;;29.63;21.47;;;9.40;97.50;;;;;;5054086;28;20782;-69
2022/01/12 13:50:52;;;;;;;27.10;17.60;;;9.20;98.10;;;;;;5054039;28;20408;-69
2022/01/12 13:53:19;;;;;;;29.53;18.53;;;9.10;98.70;;;;;;5054749;28;20396;-69
2022/01/12 13:55:53;;;;;;;30.73;19.27;;;9.10;98.80;;;;;;5054633;28;20901;-69
2022/01/12 13:58:20;;;;;;;26.13;17.70;;;8.90;98.90;;;;;;5054693;28;20514;-70
2022/01/12 14:00:46;;;;;;;30.53;18.67;;;8.90;99.30;;;;;;5063653;28;20480;-69
2022/01/12 14:03:22;;;;;;;31.55;22.05;;;8.80;99.40;;;;;;5072990;28;20402;-82
2022/01/12 14:05:53;;;;;;;31.60;21.90;;;8.80;99.90;;;;;;5056025;28;20173;-69
2022/01/12 14:08:22;;;;;;;30.60;18.77;;;8.70;99.90;;;;;;5073520;28;20788;-70
2022/01/12 14:10:54;;;;;;;26.00;18.70;;;8.60;99.90;;;;;;5073970;28;20415;-70
2022/01/12 14:13:28;;;;;;;26.87;18.67;;;8.60;99.90;;;;;;5071379;28;20517;-70
2022/01/12 14:16:08;;;;;;;30.80;19.10;;;8.50;99.90;;;;;;5074677;28;20757;-71